Airport ID:KGOO
Update Time (UTC):18/04/2021 07:45
Wind Speed (Knots):0
Wind Direction (Magnetic):70
Temperature (°C):13
Dew Point (°C):-10
Humidity (%):21
Altimeter (inHg):30.17
Density Altitude (Feet):
Visibility:10+
Clouds (Hundreds of feet):CLR
Present Weather:
METAR:METAR KGOO 180740Z AUTO 00000KT 10SM CLR 12/M10 A3017 RMK A01

The data displayed is for advisory purposes only and is not to be used for flight planning or operations.